sensor_id;sensor_type;location;lat;lon;timestamp;P1;durP1;ratioP1;P2;durP2;ratioP2
12956;SDS011;6543;48.836;10.092;2023-02-23T00:01:09;23.13;;;16.13;;
12956;SDS011;6543;48.836;10.092;2023-02-23T00:03:38;22.77;;;15.17;;
12956;SDS011;6543;48.836;10.092;2023-02-23T00:06:05;23.47;;;16.60;;
12956;SDS011;6543;48.836;10.092;2023-02-23T00:08:33;25.60;;;15.83;;
12956;SDS011;6543;48.836;10.092;2023-02-23T00:11:01;21.83;;;15.87;;
12956;SDS011;6543;48.836;10.092;2023-02-23T00:13:29;26.27;;;15.87;;
12956;SDS011;6543;48.836;10.092;2023-02-23T00:15:57;23.97;;;16.17;;
12956;SDS011;6543;48.836;10.092;2023-02-23T00:18:24;24.20;;;15.70;;
12956;SDS011;6543;48.836;10.092;2023-02-23T00:20:56;21.37;;;15.33;;
12956;SDS011;6543;48.836;10.092;2023-02-23T00:23:23;20.47;;;14.13;;
12956;SDS011;6543;48.836;10.092;2023-02-23T00:25:51;18.57;;;14.67;;
12956;SDS011;6543;48.836;10.092;2023-02-23T00:28:18;25.03;;;15.60;;
12956;SDS011;6543;48.836;10.092;2023-02-23T00:30:45;26.17;;;15.97;;
12956;SDS011;6543;48.836;10.092;2023-02-23T00:33:12;21.27;;;14.90;;
12956;SDS011;6543;48.836;10.092;2023-02-23T00:35:39;20.90;;;15.60;;
12956;SDS011;6543;48.836;10.092;2023-02-23T00:38:08;22.77;;;16.23;;
12956;SDS011;6543;48.836;10.092;2023-02-23T00:40:38;20.03;;;14.77;;
12956;SDS011;6543;48.836;10.092;2023-02-23T00:43:07;27.73;;;16.70;;
12956;SDS011;6543;48.836;10.092;2023-02-23T00:45:34;21.93;;;15.53;;
12956;SDS011;6543;48.836;10.092;2023-02-23T00:48:02;22.53;;;15.50;;
12956;SDS011;6543;48.836;10.092;2023-02-23T00:50:34;24.57;;;17.17;;
12956;SDS011;6543;48.836;10.092;2023-02-23T00:53:03;24.33;;;16.53;;
12956;SDS011;6543;48.836;10.092;2023-02-23T00:55:31;24.90;;;17.10;;
12956;SDS011;6543;48.836;10.092;2023-02-23T00:57:58;24.20;;;16.30;;
12956;SDS011;6543;48.836;10.092;2023-02-23T01:00:28;24.60;;;16.13;;
12956;SDS011;6543;48.836;10.092;2023-02-23T01:02:55;22.27;;;16.10;;
12956;SDS011;6543;48.836;10.092;2023-02-23T01:05:22;25.17;;;16.57;;
12956;SDS011;6543;48.836;10.092;2023-02-23T01:07:49;24.67;;;16.63;;
12956;SDS011;6543;48.836;10.092;2023-02-23T01:10:17;19.43;;;15.50;;
12956;SDS011;6543;48.836;10.092;2023-02-23T01:12:49;25.90;;;15.03;;
12956;SDS011;6543;48.836;10.092;2023-02-23T01:15:16;23.23;;;15.77;;
12956;SDS011;6543;48.836;10.092;2023-02-23T01:17:45;19.00;;;14.60;;
12956;SDS011;6543;48.836;10.092;2023-02-23T01:20:13;24.17;;;15.43;;
12956;SDS011;6543;48.836;10.092;2023-02-23T01:22:43;24.23;;;15.73;;
12956;SDS011;6543;48.836;10.092;2023-02-23T01:25:11;24.73;;;15.80;;
12956;SDS011;6543;48.836;10.092;2023-02-23T01:27:38;23.37;;;15.43;;
12956;SDS011;6543;48.836;10.092;2023-02-23T01:30:09;25.03;;;16.20;;
12956;SDS011;6543;48.836;10.092;2023-02-23T01:32:37;22.13;;;16.20;;
12956;SDS011;6543;48.836;10.092;2023-02-23T01:35:04;23.83;;;16.97;;
12956;SDS011;6543;48.836;10.092;2023-02-23T01:37:33;23.60;;;15.13;;
12956;SDS011;6543;48.836;10.092;2023-02-23T01:40:05;25.57;;;15.67;;
12956;SDS011;6543;48.836;10.092;2023-02-23T01:42:38;24.70;;;15.63;;
12956;SDS011;6543;48.836;10.092;2023-02-23T01:47:49;21.33;;;15.07;;
12956;SDS011;6543;48.836;10.092;2023-02-23T01:50:19;21.57;;;15.47;;
12956;SDS011;6543;48.836;10.092;2023-02-23T01:52:48;20.87;;;14.03;;
12956;SDS011;6543;48.836;10.092;2023-02-23T01:55:17;22.67;;;15.60;;
12956;SDS011;6543;48.836;10.092;2023-02-23T01:57:48;23.10;;;16.27;;
12956;SDS011;6543;48.836;10.092;2023-02-23T02:00:19;22.83;;;16.57;;
12956;SDS011;6543;48.836;10.092;2023-02-23T02:02:50;26.97;;;16.87;;
12956;SDS011;6543;48.836;10.092;2023-02-23T02:05:17;25.47;;;16.40;;
12956;SDS011;6543;48.836;10.092;2023-02-23T02:07:45;23.93;;;16.47;;
12956;SDS011;6543;48.836;10.092;2023-02-23T02:10:15;25.10;;;16.57;;
12956;SDS011;6543;48.836;10.092;2023-02-23T02:13:05;23.53;;;16.67;;
12956;SDS011;6543;48.836;10.092;2023-02-23T02:15:36;23.77;;;17.40;;
12956;SDS011;6543;48.836;10.092;2023-02-23T02:18:18;29.43;;;17.40;;
12956;SDS011;6543;48.836;10.092;2023-02-23T02:27:28;26.33;;;17.43;;
12956;SDS011;6543;48.836;10.092;2023-02-23T02:33:21;25.37;;;18.27;;
12956;SDS011;6543;48.836;10.092;2023-02-23T02:39:14;21.07;;;17.13;;
12956;SDS011;6543;48.836;10.092;2023-02-23T02:42:00;26.67;;;18.37;;
12956;SDS011;6543;48.836;10.092;2023-02-23T02:44:37;26.60;;;18.90;;
12956;SDS011;6543;48.836;10.092;2023-02-23T02:47:10;25.37;;;19.00;;
12956;SDS011;6543;48.836;10.092;2023-02-23T02:49:44;27.27;;;18.07;;
12956;SDS011;6543;48.836;10.092;2023-02-23T02:52:18;24.00;;;17.90;;
12956;SDS011;6543;48.836;10.092;2023-02-23T02:54:51;29.57;;;18.87;;
12956;SDS011;6543;48.836;10.092;2023-02-23T02:57:23;26.13;;;19.03;;
12956;SDS011;6543;48.836;10.092;2023-02-23T02:59:53;27.00;;;18.33;;
12956;SDS011;6543;48.836;10.092;2023-02-23T03:02:40;23.33;;;17.67;;
12956;SDS011;6543;48.836;10.092;2023-02-23T03:05:25;27.93;;;18.23;;
12956;SDS011;6543;48.836;10.092;2023-02-23T03:08:14;30.10;;;17.77;;
12956;SDS011;6543;48.836;10.092;2023-02-23T03:11:07;26.20;;;18.83;;
12956;SDS011;6543;48.836;10.092;2023-02-23T03:13:58;24.27;;;17.43;;
12956;SDS011;6543;48.836;10.092;2023-02-23T03:16:54;24.57;;;17.40;;
12956;SDS011;6543;48.836;10.092;2023-02-23T03:19:45;26.07;;;17.80;;
12956;SDS011;6543;48.836;10.092;2023-02-23T03:22:37;29.27;;;17.03;;
12956;SDS011;6543;48.836;10.092;2023-02-23T03:25:28;22.77;;;17.17;;
12956;SDS011;6543;48.836;10.092;2023-02-23T03:28:20;23.83;;;15.00;;
12956;SDS011;6543;48.836;10.092;2023-02-23T03:31:08;21.57;;;15.80;;
12956;SDS011;6543;48.836;10.092;2023-02-23T03:33:59;26.83;;;16.67;;
12956;SDS011;6543;48.836;10.092;2023-02-23T03:36:51;26.13;;;17.27;;
12956;SDS011;6543;48.836;10.092;2023-02-23T03:39:42;24.40;;;17.27;;
12956;SDS011;6543;48.836;10.092;2023-02-23T03:42:31;25.53;;;17.47;;
12956;SDS011;6543;48.836;10.092;2023-02-23T03:45:21;27.83;;;18.10;;
12956;SDS011;6543;48.836;10.092;2023-02-23T03:48:09;25.07;;;18.43;;
12956;SDS011;6543;48.836;10.092;2023-02-23T03:50:57;28.17;;;18.53;;
12956;SDS011;6543;48.836;10.092;2023-02-23T03:53:47;28.83;;;18.27;;
12956;SDS011;6543;48.836;10.092;2023-02-23T03:56:37;29.33;;;18.43;;
12956;SDS011;6543;48.836;10.092;2023-02-23T03:59:27;26.07;;;18.43;;
12956;SDS011;6543;48.836;10.092;2023-02-23T04:02:16;26.07;;;18.50;;
12956;SDS011;6543;48.836;10.092;2023-02-23T04:05:04;29.40;;;18.73;;
12956;SDS011;6543;48.836;10.092;2023-02-23T04:07:52;27.43;;;19.47;;
12956;SDS011;6543;48.836;10.092;2023-02-23T04:10:40;32.00;;;19.70;;
12956;SDS011;6543;48.836;10.092;2023-02-23T04:13:29;35.70;;;19.40;;
12956;SDS011;6543;48.836;10.092;2023-02-23T04:15:59;29.60;;;19.73;;
12956;SDS011;6543;48.836;10.092;2023-02-23T04:18:30;30.53;;;21.50;;
12956;SDS011;6543;48.836;10.092;2023-02-23T04:21:21;29.67;;;20.87;;
12956;SDS011;6543;48.836;10.092;2023-02-23T04:23:58;28.07;;;21.43;;
12956;SDS011;6543;48.836;10.092;2023-02-23T04:26:44;26.87;;;19.47;;
12956;SDS011;6543;48.836;10.092;2023-02-23T04:29:13;28.73;;;20.83;;
12956;SDS011;6543;48.836;10.092;2023-02-23T04:31:53;32.63;;;21.57;;
12956;SDS011;6543;48.836;10.092;2023-02-23T04:34:30;32.67;;;22.60;;
12956;SDS011;6543;48.836;10.092;2023-02-23T04:37:29;29.93;;;22.03;;
12956;SDS011;6543;48.836;10.092;2023-02-23T04:40:08;36.40;;;22.87;;
12956;SDS011;6543;48.836;10.092;2023-02-23T04:43:08;33.67;;;20.70;;
12956;SDS011;6543;48.836;10.092;2023-02-23T04:45:45;26.20;;;20.67;;
12956;SDS011;6543;48.836;10.092;2023-02-23T04:48:16;35.43;;;21.60;;
12956;SDS011;6543;48.836;10.092;2023-02-23T04:50:58;30.80;;;21.63;;
12956;SDS011;6543;48.836;10.092;2023-02-23T04:57:36;30.07;;;22.07;;
12956;SDS011;6543;48.836;10.092;2023-02-23T04:59:52;32.83;;;21.80;;
12956;SDS011;6543;48.836;10.092;2023-02-23T05:02:20;35.63;;;21.13;;
12956;SDS011;6543;48.836;10.092;2023-02-23T05:05:13;32.37;;;21.77;;
12956;SDS011;6543;48.836;10.092;2023-02-23T05:07:55;29.37;;;21.83;;
12956;SDS011;6543;48.836;10.092;2023-02-23T05:10:22;35.30;;;24.03;;
12956;SDS011;6543;48.836;10.092;2023-02-23T05:12:49;32.20;;;22.83;;
12956;SDS011;6543;48.836;10.092;2023-02-23T05:15:16;34.40;;;24.27;;
12956;SDS011;6543;48.836;10.092;2023-02-23T05:17:43;37.77;;;25.63;;
12956;SDS011;6543;48.836;10.092;2023-02-23T05:20:11;37.13;;;23.57;;
12956;SDS011;6543;48.836;10.092;2023-02-23T05:22:39;44.03;;;26.23;;
12956;SDS011;6543;48.836;10.092;2023-02-23T05:25:08;39.47;;;25.97;;
12956;SDS011;6543;48.836;10.092;2023-02-23T05:27:35;38.97;;;25.57;;
12956;SDS011;6543;48.836;10.092;2023-02-23T05:30:03;42.07;;;26.83;;
12956;SDS011;6543;48.836;10.092;2023-02-23T05:32:31;45.93;;;27.23;;
12956;SDS011;6543;48.836;10.092;2023-02-23T05:34:58;46.60;;;28.23;;
12956;SDS011;6543;48.836;10.092;2023-02-23T05:37:26;47.07;;;28.70;;
12956;SDS011;6543;48.836;10.092;2023-02-23T05:39:53;56.50;;;32.00;;
12956;SDS011;6543;48.836;10.092;2023-02-23T05:42:21;53.70;;;33.37;;
12956;SDS011;6543;48.836;10.092;2023-02-23T05:44:48;60.90;;;34.83;;
12956;SDS011;6543;48.836;10.092;2023-02-23T05:47:15;54.60;;;34.60;;
12956;SDS011;6543;48.836;10.092;2023-02-23T05:49:42;44.40;;;28.53;;
12956;SDS011;6543;48.836;10.092;2023-02-23T05:52:10;46.30;;;28.90;;
12956;SDS011;6543;48.836;10.092;2023-02-23T05:54:37;50.73;;;32.30;;
12956;SDS011;6543;48.836;10.092;2023-02-23T05:57:04;62.60;;;33.83;;
12956;SDS011;6543;48.836;10.092;2023-02-23T05:59:32;57.13;;;35.73;;
12956;SDS011;6543;48.836;10.092;2023-02-23T06:01:59;77.23;;;40.67;;
12956;SDS011;6543;48.836;10.092;2023-02-23T06:04:26;71.53;;;38.80;;
12956;SDS011;6543;48.836;10.092;2023-02-23T06:06:53;71.33;;;39.47;;
12956;SDS011;6543;48.836;10.092;2023-02-23T06:09:20;66.20;;;38.00;;
12956;SDS011;6543;48.836;10.092;2023-02-23T06:11:47;59.77;;;34.77;;
12956;SDS011;6543;48.836;10.092;2023-02-23T06:14:15;65.83;;;33.13;;
12956;SDS011;6543;48.836;10.092;2023-02-23T06:16:43;57.03;;;32.70;;
12956;SDS011;6543;48.836;10.092;2023-02-23T06:19:12;52.90;;;33.47;;
12956;SDS011;6543;48.836;10.092;2023-02-23T06:21:39;51.07;;;33.57;;
12956;SDS011;6543;48.836;10.092;2023-02-23T06:24:06;50.27;;;33.83;;
12956;SDS011;6543;48.836;10.092;2023-02-23T06:26:33;56.80;;;34.47;;
12956;SDS011;6543;48.836;10.092;2023-02-23T06:29:00;57.77;;;36.60;;
12956;SDS011;6543;48.836;10.092;2023-02-23T06:31:27;61.60;;;37.53;;
12956;SDS011;6543;48.836;10.092;2023-02-23T06:33:55;56.70;;;37.03;;
12956;SDS011;6543;48.836;10.092;2023-02-23T06:36:22;57.60;;;36.30;;
12956;SDS011;6543;48.836;10.092;2023-02-23T06:38:49;61.43;;;37.30;;
12956;SDS011;6543;48.836;10.092;2023-02-23T06:41:16;59.97;;;37.37;;
12956;SDS011;6543;48.836;10.092;2023-02-23T06:43:43;64.97;;;36.23;;
12956;SDS011;6543;48.836;10.092;2023-02-23T06:46:10;65.37;;;37.73;;
12956;SDS011;6543;48.836;10.092;2023-02-23T06:48:37;59.70;;;36.97;;
12956;SDS011;6543;48.836;10.092;2023-02-23T06:51:06;63.63;;;38.17;;
12956;SDS011;6543;48.836;10.092;2023-02-23T06:53:33;59.33;;;36.27;;
12956;SDS011;6543;48.836;10.092;2023-02-23T06:56:04;62.80;;;38.23;;
12956;SDS011;6543;48.836;10.092;2023-02-23T06:58:31;66.80;;;42.17;;
12956;SDS011;6543;48.836;10.092;2023-02-23T07:00:58;63.37;;;37.17;;
12956;SDS011;6543;48.836;10.092;2023-02-23T07:03:25;60.53;;;37.87;;
12956;SDS011;6543;48.836;10.092;2023-02-23T07:05:52;56.57;;;37.23;;
12956;SDS011;6543;48.836;10.092;2023-02-23T07:08:20;55.97;;;35.30;;
12956;SDS011;6543;48.836;10.092;2023-02-23T07:10:47;59.53;;;36.13;;
12956;SDS011;6543;48.836;10.092;2023-02-23T07:13:14;59.90;;;37.20;;
12956;SDS011;6543;48.836;10.092;2023-02-23T07:15:42;56.67;;;36.73;;
12956;SDS011;6543;48.836;10.092;2023-02-23T07:18:08;53.47;;;34.83;;
12956;SDS011;6543;48.836;10.092;2023-02-23T07:20:35;57.40;;;35.97;;
12956;SDS011;6543;48.836;10.092;2023-02-23T07:23:02;49.20;;;35.17;;
12956;SDS011;6543;48.836;10.092;2023-02-23T07:25:31;50.27;;;33.73;;
12956;SDS011;6543;48.836;10.092;2023-02-23T07:27:57;52.33;;;35.37;;
12956;SDS011;6543;48.836;10.092;2023-02-23T07:30:24;59.53;;;34.53;;
12956;SDS011;6543;48.836;10.092;2023-02-23T07:32:52;50.47;;;33.77;;
12956;SDS011;6543;48.836;10.092;2023-02-23T07:35:19;52.50;;;35.10;;
12956;SDS011;6543;48.836;10.092;2023-02-23T07:37:46;58.23;;;36.93;;
12956;SDS011;6543;48.836;10.092;2023-02-23T07:40:13;55.93;;;36.87;;
12956;SDS011;6543;48.836;10.092;2023-02-23T07:42:41;52.40;;;37.57;;
12956;SDS011;6543;48.836;10.092;2023-02-23T07:45:08;65.00;;;38.17;;
12956;SDS011;6543;48.836;10.092;2023-02-23T07:47:36;56.17;;;37.10;;
12956;SDS011;6543;48.836;10.092;2023-02-23T07:50:04;59.03;;;38.57;;
12956;SDS011;6543;48.836;10.092;2023-02-23T07:52:34;57.83;;;38.63;;
12956;SDS011;6543;48.836;10.092;2023-02-23T07:55:01;62.27;;;39.30;;
12956;SDS011;6543;48.836;10.092;2023-02-23T07:57:29;60.23;;;38.37;;
12956;SDS011;6543;48.836;10.092;2023-02-23T07:59:57;71.40;;;42.07;;
12956;SDS011;6543;48.836;10.092;2023-02-23T08:02:24;58.83;;;37.40;;
12956;SDS011;6543;48.836;10.092;2023-02-23T08:04:53;63.13;;;37.73;;
12956;SDS011;6543;48.836;10.092;2023-02-23T08:07:20;62.40;;;37.83;;
12956;SDS011;6543;48.836;10.092;2023-02-23T08:09:48;74.13;;;37.87;;
12956;SDS011;6543;48.836;10.092;2023-02-23T08:12:15;68.27;;;37.80;;
12956;SDS011;6543;48.836;10.092;2023-02-23T08:14:42;60.00;;;34.70;;
12956;SDS011;6543;48.836;10.092;2023-02-23T08:17:11;55.70;;;34.40;;
12956;SDS011;6543;48.836;10.092;2023-02-23T08:19:38;53.33;;;33.43;;
12956;SDS011;6543;48.836;10.092;2023-02-23T08:22:05;51.73;;;34.70;;
12956;SDS011;6543;48.836;10.092;2023-02-23T08:24:32;50.37;;;32.73;;
12956;SDS011;6543;48.836;10.092;2023-02-23T08:27:00;52.40;;;34.27;;
12956;SDS011;6543;48.836;10.092;2023-02-23T08:29:27;46.33;;;31.87;;
12956;SDS011;6543;48.836;10.092;2023-02-23T08:31:54;46.57;;;32.07;;
12956;SDS011;6543;48.836;10.092;2023-02-23T08:34:23;43.13;;;30.83;;
12956;SDS011;6543;48.836;10.092;2023-02-23T08:36:50;45.40;;;29.80;;
12956;SDS011;6543;48.836;10.092;2023-02-23T08:39:18;42.47;;;28.97;;
12956;SDS011;6543;48.836;10.092;2023-02-23T08:41:45;47.77;;;29.93;;
12956;SDS011;6543;48.836;10.092;2023-02-23T08:44:12;46.53;;;28.70;;
12956;SDS011;6543;48.836;10.092;2023-02-23T08:46:41;42.70;;;29.00;;
12956;SDS011;6543;48.836;10.092;2023-02-23T08:49:09;46.63;;;27.43;;
12956;SDS011;6543;48.836;10.092;2023-02-23T08:51:37;37.83;;;25.77;;
12956;SDS011;6543;48.836;10.092;2023-02-23T08:54:07;33.43;;;23.93;;
12956;SDS011;6543;48.836;10.092;2023-02-23T08:56:38;43.33;;;26.00;;
12956;SDS011;6543;48.836;10.092;2023-02-23T08:59:06;32.23;;;24.23;;
12956;SDS011;6543;48.836;10.092;2023-02-23T09:01:33;31.87;;;23.47;;
12956;SDS011;6543;48.836;10.092;2023-02-23T09:04:01;30.40;;;22.03;;
12956;SDS011;6543;48.836;10.092;2023-02-23T09:06:28;32.87;;;24.23;;
12956;SDS011;6543;48.836;10.092;2023-02-23T09:08:57;31.57;;;22.20;;
12956;SDS011;6543;48.836;10.092;2023-02-23T09:11:25;29.60;;;20.50;;
12956;SDS011;6543;48.836;10.092;2023-02-23T09:13:52;25.93;;;20.30;;
12956;SDS011;6543;48.836;10.092;2023-02-23T09:16:19;32.00;;;19.47;;
12956;SDS011;6543;48.836;10.092;2023-02-23T09:18:46;27.60;;;18.90;;
12956;SDS011;6543;48.836;10.092;2023-02-23T09:21:14;30.33;;;19.67;;
12956;SDS011;6543;48.836;10.092;2023-02-23T09:23:45;27.97;;;19.07;;
12956;SDS011;6543;48.836;10.092;2023-02-23T09:26:16;21.23;;;16.70;;
12956;SDS011;6543;48.836;10.092;2023-02-23T09:28:44;24.63;;;15.97;;
12956;SDS011;6543;48.836;10.092;2023-02-23T09:31:12;22.13;;;15.70;;
12956;SDS011;6543;48.836;10.092;2023-02-23T09:33:41;19.33;;;14.33;;
12956;SDS011;6543;48.836;10.092;2023-02-23T09:36:09;20.00;;;15.00;;
12956;SDS011;6543;48.836;10.092;2023-02-23T09:38:40;17.93;;;13.07;;
12956;SDS011;6543;48.836;10.092;2023-02-23T09:41:26;15.60;;;12.10;;
12956;SDS011;6543;48.836;10.092;2023-02-23T09:44:32;14.20;;;11.70;;
12956;SDS011;6543;48.836;10.092;2023-02-23T09:47:20;16.20;;;11.57;;
12956;SDS011;6543;48.836;10.092;2023-02-23T09:50:02;10.33;;;8.83;;
12956;SDS011;6543;48.836;10.092;2023-02-23T09:52:44;13.17;;;10.03;;
12956;SDS011;6543;48.836;10.092;2023-02-23T09:55:16;12.00;;;8.73;;
12956;SDS011;6543;48.836;10.092;2023-02-23T09:57:47;9.83;;;7.30;;
12956;SDS011;6543;48.836;10.092;2023-02-23T10:00:19;9.37;;;7.87;;
12956;SDS011;6543;48.836;10.092;2023-02-23T10:05:42;9.50;;;7.97;;
12956;SDS011;6543;48.836;10.092;2023-02-23T10:08:15;9.00;;;6.70;;
12956;SDS011;6543;48.836;10.092;2023-02-23T10:10:48;9.23;;;7.13;;
12956;SDS011;6543;48.836;10.092;2023-02-23T10:13:24;10.97;;;6.60;;
12956;SDS011;6543;48.836;10.092;2023-02-23T10:16:03;9.07;;;5.90;;
12956;SDS011;6543;48.836;10.092;2023-02-23T10:18:39;8.80;;;5.83;;
12956;SDS011;6543;48.836;10.092;2023-02-23T10:21:14;8.70;;;6.20;;
12956;SDS011;6543;48.836;10.092;2023-02-23T10:23:50;8.97;;;6.37;;
12956;SDS011;6543;48.836;10.092;2023-02-23T10:26:21;8.07;;;5.67;;
12956;SDS011;6543;48.836;10.092;2023-02-23T10:28:53;9.37;;;5.93;;
12956;SDS011;6543;48.836;10.092;2023-02-23T10:31:25;9.33;;;5.40;;
12956;SDS011;6543;48.836;10.092;2023-02-23T10:33:56;8.30;;;5.37;;
12956;SDS011;6543;48.836;10.092;2023-02-23T10:36:32;6.20;;;4.67;;
12956;SDS011;6543;48.836;10.092;2023-02-23T10:39:03;8.13;;;4.77;;
12956;SDS011;6543;48.836;10.092;2023-02-23T10:41:32;6.10;;;4.17;;
12956;SDS011;6543;48.836;10.092;2023-02-23T10:44:02;6.13;;;4.30;;
12956;SDS011;6543;48.836;10.092;2023-02-23T10:46:33;8.13;;;4.43;;
12956;SDS011;6543;48.836;10.092;2023-02-23T10:49:06;6.50;;;5.13;;
12956;SDS011;6543;48.836;10.092;2023-02-23T10:51:39;6.27;;;4.30;;
12956;SDS011;6543;48.836;10.092;2023-02-23T10:57:03;7.10;;;5.30;;
12956;SDS011;6543;48.836;10.092;2023-02-23T10:59:36;7.47;;;5.63;;
12956;SDS011;6543;48.836;10.092;2023-02-23T11:02:15;9.77;;;7.87;;
12956;SDS011;6543;48.836;10.092;2023-02-23T11:04:55;7.53;;;5.03;;
12956;SDS011;6543;48.836;10.092;2023-02-23T11:07:24;7.60;;;4.50;;
12956;SDS011;6543;48.836;10.092;2023-02-23T11:09:59;5.27;;;3.93;;
12956;SDS011;6543;48.836;10.092;2023-02-23T11:14:56;5.67;;;3.80;;
12956;SDS011;6543;48.836;10.092;2023-02-23T11:16:36;4.93;;;3.50;;
12956;SDS011;6543;48.836;10.092;2023-02-23T11:19:51;8.40;;;4.53;;
12956;SDS011;6543;48.836;10.092;2023-02-23T11:23:14;5.77;;;4.37;;
12956;SDS011;6543;48.836;10.092;2023-02-23T11:26:27;5.07;;;3.50;;
12956;SDS011;6543;48.836;10.092;2023-02-23T11:39:26;5.87;;;3.97;;
12956;SDS011;6543;48.836;10.092;2023-02-23T11:46:30;6.13;;;3.27;;
12956;SDS011;6543;48.836;10.092;2023-02-23T11:49:50;5.80;;;2.73;;
12956;SDS011;6543;48.836;10.092;2023-02-23T11:53:16;3.63;;;3.10;;
12956;SDS011;6543;48.836;10.092;2023-02-23T12:00:20;3.23;;;2.30;;
12956;SDS011;6543;48.836;10.092;2023-02-23T12:03:45;7.10;;;2.60;;
12956;SDS011;6543;48.836;10.092;2023-02-23T12:13:11;4.87;;;3.30;;
12956;SDS011;6543;48.836;10.092;2023-02-23T12:19:19;6.93;;;4.17;;
12956;SDS011;6543;48.836;10.092;2023-02-23T12:33:52;9.73;;;4.90;;
12956;SDS011;6543;48.836;10.092;2023-02-23T12:36:03;10.30;;;5.43;;
12956;SDS011;6543;48.836;10.092;2023-02-23T12:49:10;6.87;;;4.67;;
12956;SDS011;6543;48.836;10.092;2023-02-23T12:56:11;7.10;;;4.47;;
12956;SDS011;6543;48.836;10.092;2023-02-23T12:59:51;10.33;;;4.67;;
12956;SDS011;6543;48.836;10.092;2023-02-23T13:13:44;11.67;;;5.60;;
12956;SDS011;6543;48.836;10.092;2023-02-23T13:19:59;11.63;;;4.90;;
12956;SDS011;6543;48.836;10.092;2023-02-23T13:23:24;9.00;;;5.20;;
12956;SDS011;6543;48.836;10.092;2023-02-23T13:37:15;12.00;;;5.27;;
12956;SDS011;6543;48.836;10.092;2023-02-23T13:40:13;10.60;;;5.93;;
12956;SDS011;6543;48.836;10.092;2023-02-23T13:46:39;13.10;;;6.03;;
12956;SDS011;6543;48.836;10.092;2023-02-23T14:00:13;7.73;;;4.43;;
12956;SDS011;6543;48.836;10.092;2023-02-23T14:03:23;9.10;;;4.40;;
12956;SDS011;6543;48.836;10.092;2023-02-23T14:10:00;7.13;;;4.53;;
12956;SDS011;6543;48.836;10.092;2023-02-23T14:13:22;8.93;;;4.70;;
12956;SDS011;6543;48.836;10.092;2023-02-23T14:30:42;6.60;;;4.17;;
12956;SDS011;6543;48.836;10.092;2023-02-23T14:40:13;9.93;;;4.43;;
12956;SDS011;6543;48.836;10.092;2023-02-23T14:53:42;8.67;;;3.63;;
12956;SDS011;6543;48.836;10.092;2023-02-23T15:04:47;7.30;;;4.07;;
12956;SDS011;6543;48.836;10.092;2023-02-23T15:06:32;10.87;;;4.80;;
12956;SDS011;6543;48.836;10.092;2023-02-23T15:09:46;11.43;;;4.53;;
12956;SDS011;6543;48.836;10.092;2023-02-23T15:12:48;9.97;;;4.97;;
12956;SDS011;6543;48.836;10.092;2023-02-23T15:16:19;8.77;;;4.53;;
12956;SDS011;6543;48.836;10.092;2023-02-23T15:19:16;15.53;;;5.13;;
12956;SDS011;6543;48.836;10.092;2023-02-23T15:29:10;6.87;;;4.50;;
12956;SDS011;6543;48.836;10.092;2023-02-23T15:35:49;11.03;;;4.47;;
12956;SDS011;6543;48.836;10.092;2023-02-23T15:45:12;16.73;;;5.80;;
12956;SDS011;6543;48.836;10.092;2023-02-23T15:47:56;9.73;;;4.77;;
12956;SDS011;6543;48.836;10.092;2023-02-23T15:51:16;12.27;;;4.97;;
12956;SDS011;6543;48.836;10.092;2023-02-23T15:57:45;8.93;;;4.87;;
12956;SDS011;6543;48.836;10.092;2023-02-23T16:00:36;15.77;;;4.27;;
12956;SDS011;6543;48.836;10.092;2023-02-23T16:06:00;11.20;;;4.80;;
12956;SDS011;6543;48.836;10.092;2023-02-23T16:06:29;8.60;;;4.60;;
12956;SDS011;6543;48.836;10.092;2023-02-23T16:09:26;12.37;;;4.47;;
12956;SDS011;6543;48.836;10.092;2023-02-23T16:12:20;7.97;;;3.77;;
12956;SDS011;6543;48.836;10.092;2023-02-23T16:18:45;9.20;;;4.10;;
12956;SDS011;6543;48.836;10.092;2023-02-23T16:21:23;10.03;;;4.27;;
12956;SDS011;6543;48.836;10.092;2023-02-23T16:23:54;10.80;;;3.93;;
12956;SDS011;6543;48.836;10.092;2023-02-23T16:26:26;9.27;;;4.13;;
12956;SDS011;6543;48.836;10.092;2023-02-23T16:28:57;10.03;;;4.80;;
12956;SDS011;6543;48.836;10.092;2023-02-23T16:31:49;11.43;;;4.57;;
12956;SDS011;6543;48.836;10.092;2023-02-23T16:34:47;9.57;;;4.03;;
12956;SDS011;6543;48.836;10.092;2023-02-23T16:37:24;8.50;;;4.20;;
12956;SDS011;6543;48.836;10.092;2023-02-23T16:40:13;13.53;;;5.23;;
12956;SDS011;6543;48.836;10.092;2023-02-23T16:43:18;8.27;;;4.37;;
12956;SDS011;6543;48.836;10.092;2023-02-23T16:46:13;12.00;;;4.33;;
12956;SDS011;6543;48.836;10.092;2023-02-23T16:49:27;9.27;;;5.93;;
12956;SDS011;6543;48.836;10.092;2023-02-23T16:52:14;30.03;;;15.53;;
12956;SDS011;6543;48.836;10.092;2023-02-23T16:55:20;11.77;;;6.13;;
12956;SDS011;6543;48.836;10.092;2023-02-23T16:58:21;12.23;;;5.57;;
12956;SDS011;6543;48.836;10.092;2023-02-23T17:01:33;9.37;;;4.73;;
12956;SDS011;6543;48.836;10.092;2023-02-23T17:07:38;13.87;;;5.40;;
12956;SDS011;6543;48.836;10.092;2023-02-23T17:10:39;19.83;;;6.67;;
12956;SDS011;6543;48.836;10.092;2023-02-23T17:13:24;8.73;;;4.63;;
12956;SDS011;6543;48.836;10.092;2023-02-23T17:16:14;10.87;;;5.80;;
12956;SDS011;6543;48.836;10.092;2023-02-23T17:18:56;12.33;;;6.40;;
12956;SDS011;6543;48.836;10.092;2023-02-23T17:24:54;15.17;;;7.40;;
12956;SDS011;6543;48.836;10.092;2023-02-23T17:28:05;9.30;;;5.43;;
12956;SDS011;6543;48.836;10.092;2023-02-23T17:30:47;12.53;;;4.80;;
12956;SDS011;6543;48.836;10.092;2023-02-23T17:33:34;11.83;;;5.47;;
12956;SDS011;6543;48.836;10.092;2023-02-23T17:36:34;11.87;;;6.57;;
12956;SDS011;6543;48.836;10.092;2023-02-23T17:39:42;21.37;;;8.87;;
12956;SDS011;6543;48.836;10.092;2023-02-23T17:42:45;14.00;;;7.23;;
12956;SDS011;6543;48.836;10.092;2023-02-23T17:45:38;17.40;;;8.37;;
12956;SDS011;6543;48.836;10.092;2023-02-23T17:48:25;13.73;;;7.77;;
12956;SDS011;6543;48.836;10.092;2023-02-23T17:54:18;16.13;;;8.23;;
12956;SDS011;6543;48.836;10.092;2023-02-23T17:56:52;18.20;;;11.07;;
12956;SDS011;6543;48.836;10.092;2023-02-23T17:59:36;19.10;;;10.07;;
12956;SDS011;6543;48.836;10.092;2023-02-23T18:02:20;12.57;;;8.17;;
12956;SDS011;6543;48.836;10.092;2023-02-23T18:05:03;15.30;;;8.37;;
12956;SDS011;6543;48.836;10.092;2023-02-23T18:08:00;16.33;;;8.83;;
12956;SDS011;6543;48.836;10.092;2023-02-23T18:10:49;12.93;;;8.00;;
12956;SDS011;6543;48.836;10.092;2023-02-23T18:16:46;11.40;;;7.27;;
12956;SDS011;6543;48.836;10.092;2023-02-23T18:19:25;12.57;;;6.93;;
12956;SDS011;6543;48.836;10.092;2023-02-23T18:22:21;13.93;;;6.77;;
12956;SDS011;6543;48.836;10.092;2023-02-23T18:25:05;11.43;;;7.20;;
12956;SDS011;6543;48.836;10.092;2023-02-23T18:28:06;12.27;;;6.93;;
12956;SDS011;6543;48.836;10.092;2023-02-23T18:30:38;13.63;;;7.47;;
12956;SDS011;6543;48.836;10.092;2023-02-23T18:33:33;11.80;;;7.90;;
12956;SDS011;6543;48.836;10.092;2023-02-23T18:36:32;9.77;;;6.00;;
12956;SDS011;6543;48.836;10.092;2023-02-23T18:39:17;18.27;;;6.90;;
12956;SDS011;6543;48.836;10.092;2023-02-23T18:42:03;13.33;;;6.80;;
12956;SDS011;6543;48.836;10.092;2023-02-23T18:44:54;14.23;;;8.20;;
12956;SDS011;6543;48.836;10.092;2023-02-23T18:47:49;18.20;;;8.90;;
12956;SDS011;6543;48.836;10.092;2023-02-23T18:50:59;17.43;;;8.83;;
12956;SDS011;6543;48.836;10.092;2023-02-23T18:53:52;13.83;;;8.83;;
12956;SDS011;6543;48.836;10.092;2023-02-23T18:56:44;16.50;;;7.77;;